Terminal Aerodrome Forecast
Issued by NWS Newport/Morehead City, NC

Home | Current Version | Previous Version | Graphics & Text | Print | Product List | Glossary On
Versions: 1 2 3 4 5 6 7 8 9 10 11 12 13 14 15 16 17 18 19 20 21 22 23
274
FTUS42 KMHX 040533
TAFEWN
TAF
KEWN 040533Z 0406/0506 22008KT 3SM RA OVC020
     FM040800 21010KT 5SM -RA OVC010
     FM041200 23008KT 3SM -RA OVC007
     FM041700 01009G15KT 3SM -RA OVC007
     FM050000 03009KT 2SM -RA BR OVC005=

USA.gov is the U.S. government's official web portal to all federal, state and local government web resources and services.